Atlantic Mine, Michigan
Current Conditions -  °F | °C
As of 10:53 PM on Tuesday 25 Nov 2014 (Local Time) from KCMX Reporting Station
Scattered Clouds Scattered Clouds  
Wind Chill:   Ceiling: Unl
Heat Index: 18°   Visibility: 10mi
Dew Point:   Wind: 8mph
Humidity: 68%   Direction: 200°SSW
Pressure: 30.04"   Gusts: NA
Location:  47.1°N, 88.63°W
Report Text: KCMX 260353Z AUTO 20007KT 10SM SCT025 M08/M13 A3004 RMK AO2 SLP195 T10781128 $
Loading
Personal Weather Stations






























Interactive Weather Map New forecast layout! Learn more

10-Day Weather Forecast

Advertisements
Track Severe Weather on mobile